createdAt,value
2022-08-05T00:29:04.908Z,20.80
2022-08-05T00:31:54.378Z,20.60
2022-08-05T00:34:53.691Z,20.50
2022-08-05T00:37:10.519Z,20.60
2022-08-05T00:39:44.168Z,21.60
2022-08-05T00:42:34.155Z,20.50
2022-08-05T00:45:01.575Z,20.80
2022-08-05T00:47:52.945Z,20.80
2022-08-05T00:50:15.848Z,21.30
2022-08-05T00:52:45.521Z,19.60
2022-08-05T00:55:13.592Z,20.10
2022-08-05T00:57:57.879Z,20.40
2022-08-05T01:00:27.823Z,20.00
2022-08-05T01:02:55.212Z,18.80
2022-08-05T01:05:23.242Z,20.10
2022-08-05T01:08:41.410Z,20.20
2022-08-05T01:10:51.605Z,19.90
2022-08-05T01:13:27.471Z,20.10
2022-08-05T01:16:21.026Z,21.30
2022-08-05T01:18:57.454Z,17.50
2022-08-05T01:21:51.311Z,18.90
2022-08-05T01:24:41.240Z,20.80
2022-08-05T01:27:22.131Z,20.80
2022-08-05T01:29:52.712Z,20.80
2022-08-05T01:32:27.620Z,20.70
2022-08-05T01:35:00.707Z,20.00
2022-08-05T01:37:44.591Z,20.70
2022-08-05T01:40:12.947Z,17.10
2022-08-05T01:42:42.739Z,20.70
2022-08-05T01:45:10.512Z,20.60
2022-08-05T01:47:43.120Z,18.70
2022-08-05T01:50:16.011Z,20.70
2022-08-05T01:52:50.145Z,20.50
2022-08-05T01:55:20.233Z,20.20
2022-08-05T01:58:11.345Z,20.60
2022-08-05T02:00:39.572Z,19.50
2022-08-05T02:03:24.012Z,20.60
2022-08-05T02:05:53.627Z,20.50
2022-08-05T02:08:30.897Z,20.60
2022-08-05T02:11:04.559Z,20.50
2022-08-05T02:13:48.637Z,20.40
2022-08-05T02:16:27.585Z,20.30
2022-08-05T02:19:11.707Z,20.40
2022-08-05T02:21:49.110Z,20.20
2022-08-05T02:24:23.066Z,19.40
2022-08-05T02:26:54.791Z,16.90
2022-08-05T02:29:58.244Z,18.20
2022-08-05T02:32:12.691Z,19.00
2022-08-05T02:34:54.758Z,19.00
2022-08-05T02:37:23.779Z,19.00
2022-08-05T02:39:53.154Z,19.10
2022-08-05T02:42:27.637Z,19.10
2022-08-05T02:47:23.494Z,19.10
2022-08-05T02:52:30.233Z,19.10
2022-08-05T02:55:01.980Z,19.00
2022-08-05T02:58:10.222Z,19.10
2022-08-05T03:00:20.489Z,19.10
2022-08-05T03:02:48.605Z,19.10
2022-08-05T03:05:16.053Z,19.20
2022-08-05T03:08:06.733Z,19.10
2022-08-05T03:10:30.806Z,18.90
2022-08-05T03:15:24.287Z,18.90
2022-08-05T03:17:56.002Z,19.10
2022-08-05T03:20:24.836Z,19.50
2022-08-05T03:22:53.068Z,19.60
2022-08-05T03:25:33.724Z,19.80
2022-08-05T03:28:11.064Z,19.80
2022-08-05T03:30:41.293Z,20.00
2022-08-05T03:33:09.568Z,20.10
2022-08-05T03:35:41.443Z,20.20
2022-08-05T03:38:14.563Z,20.20
2022-08-05T03:40:45.051Z,20.40
2022-08-05T03:43:58.376Z,20.50
2022-08-05T03:46:01.921Z,20.60
2022-08-05T03:48:29.519Z,20.50
2022-08-05T03:52:39.331Z,20.40
2022-08-05T03:55:34.284Z,19.80
2022-08-05T03:56:58.965Z,20.30
2022-08-05T03:59:46.857Z,20.20
2022-08-05T04:02:37.723Z,20.00
2022-08-05T04:05:05.481Z,20.10
2022-08-05T04:07:57.287Z,20.10
2022-08-05T04:10:27.938Z,20.00
2022-08-05T04:12:56.317Z,20.10
2022-08-05T04:15:27.748Z,20.10
2022-08-05T04:18:03.776Z,20.10
2022-08-05T04:20:33.967Z,20.20
2022-08-05T04:23:01.153Z,20.10
2022-08-05T04:25:57.805Z,20.30
2022-08-05T04:28:15.147Z,20.40
2022-08-05T04:30:44.460Z,20.30
2022-08-05T04:33:12.479Z,20.40
2022-08-05T04:36:10.860Z,20.40
2022-08-05T04:38:39.778Z,20.50
2022-08-05T04:41:09.607Z,20.40
2022-08-05T04:43:40.597Z,20.50
2022-08-05T04:46:15.019Z,20.60
2022-08-05T04:48:58.030Z,20.70
2022-08-05T04:51:25.723Z,20.50
2022-08-05T04:53:57.347Z,20.50
2022-08-05T04:56:34.612Z,19.90
2022-08-05T04:59:24.293Z,20.80
2022-08-05T05:02:35.565Z,20.70
2022-08-05T05:04:44.197Z,19.60
2022-08-05T05:07:17.156Z,20.70
2022-08-05T05:09:45.394Z,21.00
2022-08-05T05:12:12.288Z,21.00
2022-08-05T05:14:49.097Z,18.50
2022-08-05T05:17:22.822Z,21.30
2022-08-05T05:19:54.663Z,21.70
2022-08-05T05:22:23.469Z,21.90
2022-08-05T05:24:58.513Z,22.10
2022-08-05T05:27:45.122Z,22.60
2022-08-05T05:30:15.294Z,23.80
2022-08-05T05:32:55.671Z,23.90
2022-08-05T05:35:23.081Z,24.40
2022-08-05T05:37:59.539Z,25.00
2022-08-05T05:40:28.781Z,25.80
2022-08-05T05:42:57.026Z,26.00
2022-08-05T05:45:24.680Z,26.70
2022-08-05T05:48:06.852Z,27.10
2022-08-05T05:50:41.220Z,26.20
2022-08-05T05:53:22.033Z,27.50
2022-08-05T05:55:52.012Z,27.80
2022-08-05T05:58:30.335Z,28.10
2022-08-05T10:51:57.601Z,42.90
2022-08-05T10:54:56.219Z,43.20
2022-08-05T10:57:31.780Z,43.70
2022-08-05T18:25:38.740Z,27.40
2022-08-05T20:19:50.966Z,22.70
2022-08-05T20:32:27.110Z,22.00
2022-08-05T20:50:01.970Z,21.50
2022-08-05T20:55:15.810Z,21.30
2022-08-05T20:57:44.981Z,21.10
2022-08-05T21:00:41.270Z,20.90
2022-08-05T21:03:06.225Z,21.00
2022-08-05T21:13:48.033Z,20.10
2022-08-05T21:16:14.018Z,20.10
2022-08-05T21:38:56.582Z,18.40
2022-08-05T23:15:03.353Z,17.40
